Terminal Aerodrome Forecast
Issued by NWS

Home | Current Version | Previous Version | Text Only | Print | Product List | Glossary On
Versions: 1 2 3 4 5 6 7 8 9 10 11 12 13 14 15 16 17 18 19 20
000
FTUS43 KIWX 251131
TAFSBN
TAF
KSBN 251131Z 2512/2612 28014G22KT 6SM -SHSN SCT015 BKN025
      TEMPO 2512/2516 4SM -SHSN OVC015
     FM252000 28017G25KT P6SM VCSH OVC035
     FM260400 27007KT P6SM SCT050=

USA.gov is the U.S. government's official web portal to all federal, state and local government web resources and services.